Terminal Aerodrome Forecast
Issued by NWS Shreveport, LA

Home | Current Version | Previous Version | Text Only | Print | Product List | Glossary On
Versions: 1 2 3 4 5 6 7 8 9 10 11 12 13 14 15 16 17
000
FTUS44 KSHV 200500
TAFSHV
TAF
KSHV 200540Z 2006/2106 19006KT P6SM OVC280
      TEMPO 2011/2014 5SM BR BKN020
     FM201400 19008KT P6SM FEW050 SCT250=

USA.gov is the U.S. government's official web portal to all federal, state and local government web resources and services.